DEBAB EDDL-EDLE
Flight info
| Callsign | DEBAB |
|---|---|
| Flight time | 0h -4m |
| Altitude | 4000 |
| Route | VFR |
| Aircraft | C172/L-SFG/C |
Departure
| Time | 2026-05-05 17:46 |
|---|---|
| Airport | Düsseldorf Airport (EDDL) |
Arrival
| Time | 2026-05-05 17:42 |
|---|---|
| Airport | Essen-Mülheim Airport (EDLE) |
| Time | Latitude | Longitude | Altitude | Speed | Heading |
|---|---|---|---|---|---|
| 2026-05-05 17:42 | 51.27561 | 6.75212 | 116 ft | 0 kts | 343° |
| 2026-05-05 17:42 | 51.27572 | 6.75206 | 116 ft | 8 kts | 339° |
| 2026-05-05 17:42 | 51.27621 | 6.75186 | 115 ft | 6 kts | 349° |
| 2026-05-05 17:43 | 51.27655 | 6.75184 | 116 ft | 8 kts | 7° |
| 2026-05-05 17:43 | 51.27752 | 6.75228 | 117 ft | 12 kts | 49° |
| 2026-05-05 17:43 | 51.27798 | 6.75324 | 119 ft | 12 kts | 54° |
| 2026-05-05 17:43 | 51.27853 | 6.75337 | 119 ft | 7 kts | 333° |
| 2026-05-05 17:44 | 51.27894 | 6.75306 | 118 ft | 5 kts | 330° |
| 2026-05-05 17:44 | 51.27896 | 6.75304 | 119 ft | 0 kts | 331° |
| 2026-05-05 17:45 | 51.27945 | 6.75265 | 117 ft | 21 kts | 337° |
| 2026-05-05 17:45 | 51.28076 | 6.75437 | 121 ft | 45 kts | 51° |
| 2026-05-05 17:45 | 51.28355 | 6.76016 | 124 ft | 83 kts | 52° |
| 2026-05-05 17:45 | 51.28741 | 6.76789 | 248 ft | 90 kts | 53° |
| 2026-05-05 17:46 | 51.29204 | 6.77335 | 477 ft | 81 kts | 353° |
| 2026-05-05 17:46 | 51.29581 | 6.76676 | 596 ft | 86 kts | 315° |
| 2026-05-05 17:46 | 51.30089 | 6.76276 | 814 ft | 82 kts | 339° |
| 2026-05-05 17:46 | 51.30675 | 6.75931 | 895 ft | 98 kts | 338° |
| 2026-05-05 17:47 | 51.31335 | 6.75498 | 1040 ft | 103 kts | 340° |
| 2026-05-05 17:47 | 51.32035 | 6.75174 | 1199 ft | 106 kts | 347° |
| 2026-05-05 17:47 | 51.32759 | 6.74955 | 1380 ft | 106 kts | 349° |
| 2026-05-05 17:47 | 51.33497 | 6.74751 | 1532 ft | 108 kts | 350° |
| 2026-05-05 17:48 | 51.34225 | 6.74562 | 1673 ft | 111 kts | 349° |
| 2026-05-05 17:48 | 51.35011 | 6.74273 | 1767 ft | 114 kts | 346° |
| 2026-05-05 17:48 | 51.35805 | 6.74030 | 1780 ft | 122 kts | 355° |
| 2026-05-05 17:48 | 51.36640 | 6.74292 | 1754 ft | 128 kts | 28° |
| 2026-05-05 17:49 | 51.37267 | 6.75298 | 1751 ft | 128 kts | 58° |
| 2026-05-05 17:49 | 51.37561 | 6.76654 | 1708 ft | 132 kts | 78° |
| 2026-05-05 17:49 | 51.37700 | 6.78089 | 1705 ft | 130 kts | 83° |
| 2026-05-05 17:49 | 51.37805 | 6.79531 | 1690 ft | 130 kts | 84° |
| 2026-05-05 17:50 | 51.37951 | 6.80985 | 1626 ft | 133 kts | 81° |
| 2026-05-05 17:50 | 51.38085 | 6.82425 | 1652 ft | 129 kts | 82° |
| 2026-05-05 17:50 | 51.38238 | 6.83871 | 1595 ft | 131 kts | 80° |
| 2026-05-05 17:50 | 51.38389 | 6.85305 | 1581 ft | 129 kts | 82° |
| 2026-05-05 17:51 | 51.38569 | 6.86757 | 1434 ft | 123 kts | 77° |
| 2026-05-05 17:51 | 51.38761 | 6.87898 | 1278 ft | 100 kts | 72° |
| 2026-05-05 17:51 | 51.38982 | 6.88909 | 1132 ft | 100 kts | 69° |
| 2026-05-05 17:51 | 51.39229 | 6.89901 | 943 ft | 89 kts | 68° |
| 2026-05-05 17:52 | 51.39482 | 6.90834 | 794 ft | 89 kts | 68° |
| 2026-05-05 17:52 | 51.39708 | 6.91715 | 618 ft | 84 kts | 67° |
| 2026-05-05 17:52 | 51.39934 | 6.92561 | 453 ft | 81 kts | 67° |
| 2026-05-05 17:52 | 51.40127 | 6.93283 | 416 ft | 59 kts | 66° |
| 2026-05-05 17:53 | 51.40265 | 6.93567 | 416 ft | 19 kts | 356° |
| 2026-05-05 17:53 | 51.40392 | 6.93554 | 413 ft | 18 kts | 355° |
| 2026-05-05 17:53 | 51.40461 | 6.93549 | 408 ft | 5 kts | 1° |
| 2026-05-05 17:53 | 51.40463 | 6.93549 | 408 ft | 0 kts | 1° |